Time;durP1;ratioP1;P1;durP2;ratioP2;P2;SDS_P1;SDS_P2;PMS_P1;PMS_P2;Temp;Humidity;BMP_temperature;BMP_pressure;BME280_temperature;BME280_humidity;BME280_pressure;Samples;Min_cycle;Max_cycle;Signal;HPM_P1;HPM_P2
2023/03/16 00:02:20;;;;;;;6.90;5.30;;;;;;;;;;105071;1258;60412;-47
2023/03/16 00:04:48;;;;;;;6.90;5.10;;;;;;;;;;105146;1251;62090;-50
2023/03/16 00:07:16;;;;;;;8.70;5.80;;;;;;;;;;105954;1254;60284;-49
2023/03/16 00:09:45;;;;;;;7.50;5.30;;;;;;;;;;105076;1254;60787;-49
2023/03/16 00:12:15;;;;;;;8.40;4.40;;;;;;;;;;105386;1254;60441;-46
2023/03/16 00:14:44;;;;;;;7.30;5.80;;;;;;;;;;105214;1255;60424;-51
2023/03/16 00:17:17;;;;;;;10.60;5.40;;;;;;;;;;105964;1251;62225;-45
2023/03/16 00:19:54;;;;;;;8.10;4.30;;;;;;;;;;105265;1257;60539;-47
2023/03/16 00:22:26;;;;;;;8.70;5.40;;;;;;;;;;105720;1251;62010;-47
2023/03/16 00:24:55;;;;;;;11.00;6.00;;;;;;;;;;105303;1254;61035;-47
2023/03/16 00:27:23;;;;;;;9.30;6.70;;;;;;;;;;105335;1251;60888;-49
2023/03/16 00:29:55;;;;;;;9.30;6.20;;;;;;;;;;109284;1251;62192;-49
2023/03/16 00:32:27;;;;;;;10.80;5.30;;;;;;;;;;106194;1251;59933;-47
2023/03/16 00:34:55;;;;;;;8.50;5.70;;;;;;;;;;106799;1251;61030;-45
2023/03/16 00:37:24;;;;;;;7.10;5.60;;;;;;;;;;105166;1251;60530;-48
2023/03/16 00:39:54;;;;;;;7.30;5.20;;;;;;;;;;106040;1251;60549;-46
2023/03/16 00:42:26;;;;;;;7.40;5.60;;;;;;;;;;105515;1250;62375;-47
2023/03/16 00:44:57;;;;;;;;;;;;;;;;;;105251;1251;60437;-46
2023/03/16 00:47:27;;;;;;;9.30;4.90;;;;;;;;;;105426;1251;61780;-47
2023/03/16 00:49:55;;;;;;;8.30;5.70;;;;;;;;;;105237;1254;60926;-46
2023/03/16 00:52:23;;;;;;;7.30;5.00;;;;;;;;;;105673;1251;60428;-48
2023/03/16 00:54:51;;;;;;;7.60;5.30;;;;;;;;;;105223;1251;62097;-49
2023/03/16 00:57:20;;;;;;;14.40;6.00;;;;;;;;;;105319;1251;60533;-50
2023/03/16 00:59:48;;;;;;;6.60;4.20;;;;;;;;;;105261;1251;60772;-46
2023/03/16 01:02:23;;;;;;;8.90;5.90;;;;;;;;;;105266;1250;60444;-48
2023/03/16 01:04:53;;;;;;;10.10;5.00;;;;;;;;;;108249;1250;58828;-50
2023/03/16 01:07:21;;;;;;;7.20;5.10;;;;;;;;;;109328;1251;62727;-49
2023/03/16 01:09:51;;;;;;;9.10;5.90;;;;;;;;;;108455;1250;60498;-47
2023/03/16 01:12:22;;;;;;;5.70;4.50;;;;;;;;;;105294;1254;60549;-48
2023/03/16 01:14:50;;;;;;;9.00;5.20;;;;;;;;;;105291;1251;61672;-48
2023/03/16 01:17:18;;;;;;;7.30;4.60;;;;;;;;;;105206;1250;60748;-48
2023/03/16 01:19:46;;;;;;;10.30;4.90;;;;;;;;;;109226;1251;62272;-46
2023/03/16 01:22:15;;;;;;;9.50;4.60;;;;;;;;;;109303;1251;58583;-49
2023/03/16 01:24:44;;;;;;;7.40;4.50;;;;;;;;;;106720;1251;60328;-47
2023/03/16 01:27:12;;;;;;;6.60;4.80;;;;;;;;;;109191;1250;58440;-49
2023/03/16 01:29:42;;;;;;;6.90;5.30;;;;;;;;;;109322;1251;59819;-48
2023/03/16 01:32:11;;;;;;;8.50;4.70;;;;;;;;;;109320;1250;63042;-46
2023/03/16 01:34:40;;;;;;;7.40;5.30;;;;;;;;;;109419;1251;58709;-47
2023/03/16 01:37:08;;;;;;;8.50;5.20;;;;;;;;;;109330;1251;59460;-48
2023/03/16 01:39:46;;;;;;;7.00;5.50;;;;;;;;;;107124;1253;60618;-47
2023/03/16 01:42:15;;;;;;;6.70;5.80;;;;;;;;;;109379;1251;58377;-47
2023/03/16 01:44:54;;;;;;;11.10;5.80;;;;;;;;;;106428;1252;62051;-47
2023/03/16 01:47:24;;;;;;;7.10;5.20;;;;;;;;;;107016;1250;60364;-47
2023/03/16 01:49:53;;;;;;;10.20;6.50;;;;;;;;;;105992;1251;60573;-48
2023/03/16 01:52:26;;;;;;;4.90;4.40;;;;;;;;;;106431;1250;60456;-48
2023/03/16 01:54:56;;;;;;;7.70;5.10;;;;;;;;;;105223;1251;60514;-48
2023/03/16 01:57:25;;;;;;;8.40;5.10;;;;;;;;;;105197;1251;60826;-46
2023/03/16 01:59:54;;;;;;;7.20;4.70;;;;;;;;;;106118;1254;60571;-47
2023/03/16 02:02:23;;;;;;;6.80;5.40;;;;;;;;;;106123;1251;60997;-47
2023/03/16 02:05:00;;;;;;;6.60;5.00;;;;;;;;;;106232;1251;60450;-46
2023/03/16 02:07:31;;;;;;;10.70;6.50;;;;;;;;;;105982;1251;60524;-47
2023/03/16 02:10:04;;;;;;;6.50;5.10;;;;;;;;;;105323;1250;62144;-49
2023/03/16 02:12:34;;;;;;;11.30;5.80;;;;;;;;;;105351;1251;60447;-47
2023/03/16 02:15:03;;;;;;;10.10;6.50;;;;;;;;;;105393;1251;61164;-46
2023/03/16 02:17:32;;;;;;;7.20;5.00;;;;;;;;;;105301;1251;61160;-48
2023/03/16 02:20:10;;;;;;;9.80;7.10;;;;;;;;;;105202;1251;60485;-45
2023/03/16 02:22:41;;;;;;;13.00;6.80;;;;;;;;;;106562;1251;62081;-48
2023/03/16 02:25:10;;;;;;;10.30;7.30;;;;;;;;;;105419;1251;60414;-46
2023/03/16 02:27:58;;;;;;;6.90;6.20;;;;;;;;;;105668;1251;60731;-48
2023/03/16 02:30:26;;;;;;;11.00;6.60;;;;;;;;;;105408;1251;60524;-47
2023/03/16 02:33:04;;;;;;;8.60;6.70;;;;;;;;;;105065;1251;60485;-51
2023/03/16 02:35:33;;;;;;;12.20;7.00;;;;;;;;;;106532;1251;62111;-46
2023/03/16 02:38:02;;;;;;;11.10;7.50;;;;;;;;;;105713;1254;60517;-48
2023/03/16 02:40:33;;;;;;;12.70;8.60;;;;;;;;;;105218;1251;60814;-48
2023/03/16 02:43:07;;;;;;;13.90;10.10;;;;;;;;;;105177;1250;60437;-46
2023/03/16 02:45:39;;;;;;;13.80;10.50;;;;;;;;;;106244;1251;60501;-49
2023/03/16 02:48:13;;;;;;;16.60;10.40;;;;;;;;;;105285;1251;61358;-47
2023/03/16 02:50:45;;;;;;;14.40;10.00;;;;;;;;;;105187;1256;60685;-48
2023/03/16 02:53:13;;;;;;;15.00;10.50;;;;;;;;;;105396;1253;60859;-49
2023/03/16 02:55:45;;;;;;;17.60;11.10;;;;;;;;;;104997;1254;60536;-49
2023/03/16 02:58:13;;;;;;;20.40;11.60;;;;;;;;;;105486;1251;60439;-46
2023/03/16 03:00:41;;;;;;;21.50;10.60;;;;;;;;;;105205;1253;61915;-46
2023/03/16 03:03:11;;;;;;;16.80;10.60;;;;;;;;;;105083;1251;60945;-46
2023/03/16 03:05:39;;;;;;;13.90;10.10;;;;;;;;;;105067;1250;60792;-47
2023/03/16 03:08:07;;;;;;;19.10;12.00;;;;;;;;;;105087;1253;60510;-45
2023/03/16 03:10:37;;;;;;;17.80;11.30;;;;;;;;;;105129;1250;60443;-48
2023/03/16 03:13:06;;;;;;;18.40;11.70;;;;;;;;;;105170;1251;62175;-46
2023/03/16 03:15:35;;;;;;;22.30;13.80;;;;;;;;;;105068;1254;60441;-47
2023/03/16 03:18:08;;;;;;;18.50;12.70;;;;;;;;;;105107;1251;61457;-49
2023/03/16 03:20:37;;;;;;;23.00;13.60;;;;;;;;;;105525;1250;61914;-49
2023/03/16 03:23:04;;;;;;;22.00;15.00;;;;;;;;;;105583;1255;60361;-46
2023/03/16 03:25:35;;;;;;;24.20;15.20;;;;;;;;;;105376;1251;62110;-48
2023/03/16 03:28:04;;;;;;;25.50;15.10;;;;;;;;;;106981;1251;60374;-48
2023/03/16 03:30:33;;;;;;;29.50;17.00;;;;;;;;;;105823;1251;60883;-46
2023/03/16 03:33:03;;;;;;;27.40;16.70;;;;;;;;;;105175;1251;60405;-49
2023/03/16 03:35:32;;;;;;;28.60;18.30;;;;;;;;;;105179;1251;60557;-46
2023/03/16 03:38:00;;;;;;;35.50;17.30;;;;;;;;;;105362;1251;60760;-48
2023/03/16 03:40:34;;;;;;;34.60;19.10;;;;;;;;;;105140;1251;61054;-46
2023/03/16 03:43:03;;;;;;;29.10;18.40;;;;;;;;;;105031;1254;60513;-47
2023/03/16 03:45:32;;;;;;;30.10;17.20;;;;;;;;;;108912;1251;60450;-47
2023/03/16 03:48:01;;;;;;;37.20;19.20;;;;;;;;;;109238;1251;58696;-50
2023/03/16 03:50:29;;;;;;;30.00;17.20;;;;;;;;;;109373;1250;61178;-47
2023/03/16 03:53:11;;;;;;;30.80;17.90;;;;;;;;;;109289;1250;59435;-50
2023/03/16 03:56:00;;;;;;;31.40;18.20;;;;;;;;;;109351;1251;59674;-48
2023/03/16 03:58:28;;;;;;;30.70;18.60;;;;;;;;;;109337;1251;58409;-47
2023/03/16 04:00:56;;;;;;;29.50;17.20;;;;;;;;;;109300;1250;58613;-48
2023/03/16 04:03:23;;;;;;;29.70;19.30;;;;;;;;;;109396;1250;62149;-49
2023/03/16 04:05:53;;;;;;;26.60;16.50;;;;;;;;;;109362;1251;58628;-48
2023/03/16 04:08:22;;;;;;;26.70;17.30;;;;;;;;;;109245;1251;60788;-47
2023/03/16 04:10:54;;;;;;;26.40;16.10;;;;;;;;;;109352;1251;58257;-46
2023/03/16 04:13:23;;;;;;;30.10;18.40;;;;;;;;;;109323;1251;59038;-48
2023/03/16 04:15:57;;;;;;;30.40;18.40;;;;;;;;;;109349;1250;62143;-48
2023/03/16 04:18:37;;;;;;;35.20;19.90;;;;;;;;;;109341;1250;58737;-50
2023/03/16 04:21:07;;;;;;;34.10;18.90;;;;;;;;;;109327;1251;59791;-49
2023/03/16 04:23:35;;;;;;;33.60;18.90;;;;;;;;;;109286;1251;58382;-47
2023/03/16 04:26:04;;;;;;;31.50;17.50;;;;;;;;;;107938;1251;59074;-48
2023/03/16 04:28:33;;;;;;;30.70;19.60;;;;;;;;;;105181;1250;61986;-45
2023/03/16 04:33:48;;;;;;;36.10;22.50;;;;;;;;;;102118;1294;601105;-48
2023/03/16 04:36:16;;;;;;;39.00;22.60;;;;;;;;;;104271;1269;59046;-47
2023/03/16 04:38:45;;;;;;;44.00;23.40;;;;;;;;;;103995;1264;59850;-48
2023/03/16 04:41:13;;;;;;;39.00;22.70;;;;;;;;;;107168;1263;60744;-48
2023/03/16 04:43:53;;;;;;;28.10;20.20;;;;;;;;;;104017;1263;58929;-47
2023/03/16 04:46:25;;;;;;;36.50;20.50;;;;;;;;;;105024;1256;180521;-49
2023/03/16 04:48:57;;;;;;;38.20;20.50;;;;;;;;;;105316;1254;59004;-47
2023/03/16 04:51:25;;;;;;;30.30;20.10;;;;;;;;;;105192;1251;58927;-49
2023/03/16 04:54:19;;;;;;;31.80;17.40;;;;;;;;;;105241;1251;60265;-46
2023/03/16 04:56:48;;;;;;;29.90;17.10;;;;;;;;;;106313;1250;59043;-45
2023/03/16 04:59:30;;;;;;;26.90;16.60;;;;;;;;;;105280;1251;59802;-49
2023/03/16 05:02:23;;;;;;;25.60;15.60;;;;;;;;;;105121;1256;59727;-46
2023/03/16 05:04:51;;;;;;;32.70;16.00;;;;;;;;;;105170;1254;59538;-47
2023/03/16 05:07:22;;;;;;;25.70;15.10;;;;;;;;;;105170;1251;61350;-45
2023/03/16 05:09:52;;;;;;;22.70;13.80;;;;;;;;;;105007;1251;59648;-48
2023/03/16 05:12:20;;;;;;;26.40;14.70;;;;;;;;;;105204;1256;60817;-47
2023/03/16 05:14:55;;;;;;;23.20;13.10;;;;;;;;;;105127;1252;59768;-49
2023/03/16 05:17:45;;;;;;;18.10;11.40;;;;;;;;;;105276;1251;59619;-48
2023/03/16 05:20:13;;;;;;;26.10;11.60;;;;;;;;;;105536;1251;61235;-49
2023/03/16 05:22:47;;;;;;;21.90;10.60;;;;;;;;;;105640;1253;59500;-48
2023/03/16 05:25:23;;;;;;;23.20;11.50;;;;;;;;;;105092;1254;62070;-46
2023/03/16 05:27:56;;;;;;;21.60;10.60;;;;;;;;;;105519;1256;59640;-48
2023/03/16 05:30:35;;;;;;;24.80;11.50;;;;;;;;;;107367;1253;59338;-47
2023/03/16 05:33:04;;;;;;;20.90;10.70;;;;;;;;;;105357;1251;60061;-48
2023/03/16 05:35:37;;;;;;;17.70;9.70;;;;;;;;;;105063;1256;59621;-47
2023/03/16 05:38:08;;;;;;;15.40;9.10;;;;;;;;;;105555;1251;60863;-47
2023/03/16 05:40:42;;;;;;;19.80;9.90;;;;;;;;;;105681;1253;59713;-47
2023/03/16 05:43:20;;;;;;;23.40;10.90;;;;;;;;;;104887;1250;59692;-47
2023/03/16 05:45:54;;;;;;;22.20;11.00;;;;;;;;;;107251;1251;61816;-49
2023/03/16 05:48:25;;;;;;;23.90;9.70;;;;;;;;;;105095;1251;59675;-47
2023/03/16 05:50:54;;;;;;;18.30;10.50;;;;;;;;;;105337;1253;60870;-47
2023/03/16 05:53:28;;;;;;;21.10;11.30;;;;;;;;;;105063;1251;59736;-47
2023/03/16 05:56:01;;;;;;;21.30;10.60;;;;;;;;;;105014;1257;59719;-48
2023/03/16 05:58:32;;;;;;;20.30;10.50;;;;;;;;;;105174;1255;61387;-47
2023/03/16 06:01:04;;;;;;;20.60;10.80;;;;;;;;;;105570;1253;59538;-48
2023/03/16 06:03:37;;;;;;;18.60;10.50;;;;;;;;;;105118;1253;60848;-48
2023/03/16 06:06:06;;;;;;;21.40;10.80;;;;;;;;;;105445;1253;59504;-49
2023/03/16 06:08:40;;;;;;;19.20;11.50;;;;;;;;;;106356;1253;59603;-49
2023/03/16 06:11:10;;;;;;;22.20;10.90;;;;;;;;;;105124;1257;61361;-46
2023/03/16 06:13:38;;;;;;;19.60;11.30;;;;;;;;;;105641;1251;59668;-49
2023/03/16 06:16:12;;;;;;;22.70;10.50;;;;;;;;;;105491;1251;60735;-49
2023/03/16 06:18:41;;;;;;;21.60;11.80;;;;;;;;;;106013;1254;61236;-49
2023/03/16 06:21:10;;;;;;;20.50;12.80;;;;;;;;;;105468;1251;59648;-47
2023/03/16 06:23:38;;;;;;;20.40;11.30;;;;;;;;;;105060;1250;61544;-48
2023/03/16 06:26:07;;;;;;;26.80;12.60;;;;;;;;;;107163;1253;59592;-49
2023/03/16 06:28:36;;;;;;;22.60;10.90;;;;;;;;;;104999;1251;59670;-48
2023/03/16 06:31:04;;;;;;;25.20;11.30;;;;;;;;;;108309;1251;59756;-50
2023/03/16 06:33:36;;;;;;;21.90;11.90;;;;;;;;;;104547;1251;59625;-49
2023/03/16 06:36:05;;;;;;;19.90;10.20;;;;;;;;;;106152;1251;61074;-48
2023/03/16 06:38:39;;;;;;;25.50;12.00;;;;;;;;;;109072;1251;57659;-48
2023/03/16 06:41:13;;;;;;;27.00;13.00;;;;;;;;;;109216;1251;60799;-48
2023/03/16 06:43:42;;;;;;;22.80;11.60;;;;;;;;;;109205;1251;57720;-48
2023/03/16 06:46:11;;;;;;;24.70;11.50;;;;;;;;;;109246;1251;57733;-49
2023/03/16 06:48:42;;;;;;;22.90;11.40;;;;;;;;;;109225;1251;62778;-48
2023/03/16 06:51:11;;;;;;;23.30;10.70;;;;;;;;;;109207;1251;57962;-48
2023/03/16 06:53:41;;;;;;;23.40;11.40;;;;;;;;;;109135;1251;59454;-48
2023/03/16 06:56:09;;;;;;;28.50;12.70;;;;;;;;;;109201;1251;57711;-48
2023/03/16 06:58:40;;;;;;;28.60;13.70;;;;;;;;;;109054;1251;59041;-48
2023/03/16 07:01:08;;;;;;;25.30;12.70;;;;;;;;;;109041;1254;60340;-48
2023/03/16 07:03:37;;;;;;;21.90;12.20;;;;;;;;;;109121;1253;58494;-49
2023/03/16 07:06:15;;;;;;;26.90;13.60;;;;;;;;;;109067;1255;60843;-48
2023/03/16 07:08:43;;;;;;;26.90;13.60;;;;;;;;;;109129;1251;58687;-48
2023/03/16 07:11:13;;;;;;;22.70;12.70;;;;;;;;;;109085;1251;59165;-49
2023/03/16 07:13:41;;;;;;;27.80;13.50;;;;;;;;;;109188;1251;59764;-48
2023/03/16 07:16:10;;;;;;;32.20;14.80;;;;;;;;;;105179;1251;59538;-47
2023/03/16 07:18:43;;;;;;;25.10;13.90;;;;;;;;;;105760;1251;60653;-48
2023/03/16 07:21:11;;;;;;;24.90;13.60;;;;;;;;;;106014;1251;60293;-48
2023/03/16 07:23:39;;;;;;;24.50;13.50;;;;;;;;;;104830;1251;59641;-48
2023/03/16 07:26:08;;;;;;;25.90;13.70;;;;;;;;;;105040;1259;61371;-48
2023/03/16 07:28:41;;;;;;;24.90;14.60;;;;;;;;;;105050;1251;60794;-49
2023/03/16 07:31:10;;;;;;;23.50;13.30;;;;;;;;;;105123;1251;60093;-48
2023/03/16 07:33:39;;;;;;;25.50;12.50;;;;;;;;;;105055;1257;59808;-48
2023/03/16 07:36:09;;;;;;;23.30;13.50;;;;;;;;;;106296;1251;59561;-49
2023/03/16 07:38:41;;;;;;;23.10;14.70;;;;;;;;;;105750;1251;61333;-49
2023/03/16 07:41:11;;;;;;;26.80;13.70;;;;;;;;;;104876;1257;59590;-50
2023/03/16 07:43:39;;;;;;;27.30;14.50;;;;;;;;;;105074;1251;60569;-46
2023/03/16 07:46:12;;;;;;;27.50;14.40;;;;;;;;;;106020;1256;59679;-49
2023/03/16 07:48:42;;;;;;;81.80;49.60;;;;;;;;;;105237;1252;59623;-50
2023/03/16 07:51:12;;;;;;;30.60;17.40;;;;;;;;;;105299;1250;61389;-49
2023/03/16 07:53:40;;;;;;;22.80;13.60;;;;;;;;;;105347;1252;59803;-50
2023/03/16 07:56:25;;;;;;;42.50;22.70;;;;;;;;;;105814;1256;60738;-47
2023/03/16 07:59:04;;;;;;;66.10;38.80;;;;;;;;;;105704;1251;59622;-49
2023/03/16 08:01:33;;;;;;;25.70;14.10;;;;;;;;;;105386;1251;59809;-46
2023/03/16 08:04:01;;;;;;;26.60;15.40;;;;;;;;;;105630;1251;60197;-49
2023/03/16 08:06:29;;;;;;;22.50;13.50;;;;;;;;;;105154;1256;59761;-47
2023/03/16 08:08:59;;;;;;;24.30;13.60;;;;;;;;;;105473;1255;60603;-50
2023/03/16 08:11:31;;;;;;;22.10;12.80;;;;;;;;;;106461;1256;59632;-49
2023/03/16 08:14:01;;;;;;;21.50;13.20;;;;;;;;;;105072;1251;59724;-50
2023/03/16 08:16:44;;;;;;;23.60;12.80;;;;;;;;;;104992;1256;60399;-48
2023/03/16 08:19:19;;;;;;;18.20;12.30;;;;;;;;;;105219;1254;60042;-49
2023/03/16 08:21:48;;;;;;;22.90;12.80;;;;;;;;;;106891;1251;61405;-49
2023/03/16 08:24:31;;;;;;;24.50;12.60;;;;;;;;;;105193;1256;59822;-50
2023/03/16 08:27:00;;;;;;;59.40;34.90;;;;;;;;;;105615;1256;59886;-49
2023/03/16 08:29:33;;;;;;;22.00;13.30;;;;;;;;;;106206;1254;61329;-48
2023/03/16 08:32:02;;;;;;;23.00;12.80;;;;;;;;;;104949;1256;59615;-49
2023/03/16 08:34:38;;;;;;;35.90;21.90;;;;;;;;;;106008;1251;60848;-50
2023/03/16 08:37:08;;;;;;;46.30;29.10;;;;;;;;;;105875;1255;59723;-49
2023/03/16 08:39:39;;;;;;;22.40;13.60;;;;;;;;;;105308;1251;59538;-49
2023/03/16 08:42:08;;;;;;;26.40;14.10;;;;;;;;;;105796;1251;61056;-50
2023/03/16 08:44:49;;;;;;;22.60;13.30;;;;;;;;;;106459;1257;59762;-50
2023/03/16 08:47:18;;;;;;;25.80;13.80;;;;;;;;;;105189;1256;61444;-50
2023/03/16 08:49:46;;;;;;;19.10;12.20;;;;;;;;;;105453;1257;60398;-50
2023/03/16 08:52:15;;;;;;;19.70;12.00;;;;;;;;;;105344;1251;60280;-48
2023/03/16 08:54:44;;;;;;;32.70;16.00;;;;;;;;;;105231;1253;62752;-48
2023/03/16 08:57:33;;;;;;;23.20;13.90;;;;;;;;;;105232;1251;60632;-49
2023/03/16 09:00:11;;;;;;;22.40;14.30;;;;;;;;;;104965;1256;60832;-49
2023/03/16 09:02:40;;;;;;;19.20;12.00;;;;;;;;;;105426;1255;60527;-48
2023/03/16 09:05:09;;;;;;;19.90;12.10;;;;;;;;;;104961;1256;60395;-48
2023/03/16 09:07:38;;;;;;;19.90;12.30;;;;;;;;;;105767;1254;62257;-50
2023/03/16 09:11:33;;;;;;;18.50;9.70;;;;;;;;;;101675;1289;601265;-47
2023/03/16 09:14:01;;;;;;;19.60;10.90;;;;;;;;;;105184;1264;58949;-48
2023/03/16 09:16:33;;;;;;;18.60;10.90;;;;;;;;;;104343;1263;59920;-49
2023/03/16 09:19:02;;;;;;;18.80;11.80;;;;;;;;;;104582;1257;60595;-48
2023/03/16 09:21:30;;;;;;;18.00;12.90;;;;;;;;;;104756;1263;59561;-47
2023/03/16 09:23:59;;;;;;;20.60;13.40;;;;;;;;;;104737;1260;60747;-49
2023/03/16 09:26:28;;;;;;;21.50;12.10;;;;;;;;;;104788;1256;59290;-49
2023/03/16 09:28:57;;;;;;;21.30;12.20;;;;;;;;;;104373;1256;58902;-48
2023/03/16 09:31:25;;;;;;;18.90;11.70;;;;;;;;;;104818;1256;59231;-49
2023/03/16 09:33:54;;;;;;;16.80;11.50;;;;;;;;;;105140;1257;59122;-49
2023/03/16 09:36:26;;;;;;;22.10;11.40;;;;;;;;;;104928;1256;60481;-49
2023/03/16 09:38:54;;;;;;;19.40;11.60;;;;;;;;;;105999;1260;59787;-49
2023/03/16 09:41:28;;;;;;;18.20;11.50;;;;;;;;;;104799;1257;59519;-49
2023/03/16 09:44:03;;;;;;;17.50;10.70;;;;;;;;;;104849;1257;61535;-49
2023/03/16 09:46:33;;;;;;;17.60;11.10;;;;;;;;;;104801;1259;60304;-48
2023/03/16 09:49:02;;;;;;;24.10;11.50;;;;;;;;;;104868;1257;62514;-50
2023/03/16 09:51:35;;;;;;;19.10;10.60;;;;;;;;;;104404;1257;59815;-49
2023/03/16 09:54:18;;;;;;;18.80;11.80;;;;;;;;;;104453;1257;59656;-49
2023/03/16 09:56:46;;;;;;;20.50;10.50;;;;;;;;;;104981;1257;61617;-49
2023/03/16 09:59:17;;;;;;;16.50;11.30;;;;;;;;;;105416;1254;59657;-49
2023/03/16 10:02:04;;;;;;;15.00;9.60;;;;;;;;;;106077;1251;60722;-49
2023/03/16 10:04:36;;;;;;;16.20;10.10;;;;;;;;;;104721;1256;59789;-49
2023/03/16 10:07:05;;;;;;;19.10;10.70;;;;;;;;;;105173;1252;59542;-49
2023/03/16 10:09:37;;;;;;;15.70;9.70;;;;;;;;;;105838;1252;61041;-49
2023/03/16 10:12:06;;;;;;;17.60;10.00;;;;;;;;;;105016;1251;59615;-49
2023/03/16 10:14:40;;;;;;;17.70;11.20;;;;;;;;;;105882;1252;60572;-48
2023/03/16 10:17:16;;;;;;;19.30;11.00;;;;;;;;;;105789;1252;59851;-49
2023/03/16 10:19:56;;;;;;;16.30;8.90;;;;;;;;;;105308;1251;59647;-49
2023/03/16 10:22:32;;;;;;;17.80;9.70;;;;;;;;;;105934;1255;61520;-48
2023/03/16 10:25:21;;;;;;;14.30;8.60;;;;;;;;;;105692;1255;59497;-48
2023/03/16 10:27:49;;;;;;;15.20;9.10;;;;;;;;;;105418;1254;60716;-48
2023/03/16 10:30:21;;;;;;;15.40;8.20;;;;;;;;;;104961;1256;59730;-48
2023/03/16 10:32:50;;;;;;;14.30;9.20;;;;;;;;;;104796;1250;59688;-48
2023/03/16 10:35:30;;;;;;;12.10;7.90;;;;;;;;;;105767;1256;61272;-48
2023/03/16 10:37:58;;;;;;;12.00;8.50;;;;;;;;;;104538;1251;59733;-49
2023/03/16 10:40:30;;;;;;;14.60;10.00;;;;;;;;;;107537;1254;60584;-49
2023/03/16 10:44:55;;;;;;;13.80;8.50;;;;;;;;;;101200;1288;601262;-49
2023/03/16 10:47:24;;;;;;;11.60;8.00;;;;;;;;;;103662;1266;58930;-48
2023/03/16 10:49:56;;;;;;;14.10;8.80;;;;;;;;;;108228;1265;56996;-50
2023/03/16 10:52:24;;;;;;;12.00;8.40;;;;;;;;;;108214;1266;60945;-50
2023/03/16 10:54:56;;;;;;;10.40;8.70;;;;;;;;;;108153;1267;57804;-49
2023/03/16 10:57:32;;;;;;;10.60;7.40;;;;;;;;;;108220;1267;147838;-50
2023/03/16 11:00:14;;;;;;;12.80;8.60;;;;;;;;;;108532;1263;56839;-49
2023/03/16 11:02:42;;;;;;;13.80;7.90;;;;;;;;;;105163;1264;59363;-48
2023/03/16 11:05:14;;;;;;;16.20;8.60;;;;;;;;;;104122;1266;60529;-47
2023/03/16 11:07:49;;;;;;;18.80;8.90;;;;;;;;;;104232;1266;58914;-49
2023/03/16 11:10:26;;;;;;;13.60;8.70;;;;;;;;;;104283;1263;60779;-48
2023/03/16 11:12:59;;;;;;;12.60;8.20;;;;;;;;;;104358;1265;60095;-49
2023/03/16 11:15:56;;;;;;;11.40;7.90;;;;;;;;;;105207;1266;59506;-47
2023/03/16 11:18:26;;;;;;;13.10;8.40;;;;;;;;;;104445;1266;61360;-49
2023/03/16 11:20:54;;;;;;;13.30;8.30;;;;;;;;;;104140;1266;59631;-49
2023/03/16 11:23:28;;;;;;;15.20;8.10;;;;;;;;;;104453;1264;59751;-49
2023/03/16 11:25:57;;;;;;;11.60;8.00;;;;;;;;;;106483;1259;59625;-46
2023/03/16 11:28:33;;;;;;;12.60;8.70;;;;;;;;;;104820;1254;60085;-48
2023/03/16 11:31:21;;;;;;;18.50;8.80;;;;;;;;;;105384;1260;61528;-48
2023/03/16 11:33:49;;;;;;;12.20;7.60;;;;;;;;;;105123;1259;59733;-49
2023/03/16 11:36:26;;;;;;;10.90;8.20;;;;;;;;;;106777;1256;60773;-49
2023/03/16 11:39:13;;;;;;;11.30;8.20;;;;;;;;;;104803;1260;60101;-47
2023/03/16 11:42:05;;;;;;;14.20;9.50;;;;;;;;;;104755;1258;59598;-50
2023/03/16 11:44:37;;;;;;;12.30;8.30;;;;;;;;;;104800;1259;61250;-49
2023/03/16 11:47:07;;;;;;;;;;;;;;;;;;105106;1260;59548;-48
2023/03/16 11:49:54;;;;;;;11.90;8.30;;;;;;;;;;104787;1257;60738;-49
2023/03/16 11:53:05;;;;;;;16.20;8.60;;;;;;;;;;105169;1257;59660;-49
2023/03/16 11:55:33;;;;;;;12.90;9.00;;;;;;;;;;104431;1264;59671;-49
2023/03/16 11:58:07;;;;;;;12.80;8.60;;;;;;;;;;104703;1263;61328;-49
2023/03/16 12:00:39;;;;;;;14.60;8.80;;;;;;;;;;105571;1260;59612;-50
2023/03/16 12:03:26;;;;;;;14.70;8.80;;;;;;;;;;104992;1258;59714;-49
2023/03/16 12:06:19;;;;;;;12.20;8.20;;;;;;;;;;105245;1254;59724;-49
2023/03/16 12:08:53;;;;;;;12.50;7.80;;;;;;;;;;105490;1254;59528;-48
2023/03/16 12:11:29;;;;;;;12.50;8.10;;;;;;;;;;105360;1258;61399;-43
2023/03/16 12:14:17;;;;;;;12.60;8.20;;;;;;;;;;105293;1261;59730;-47
2023/03/16 12:16:47;;;;;;;12.60;9.40;;;;;;;;;;105797;1259;60809;-48
2023/03/16 12:19:45;;;;;;;14.80;8.70;;;;;;;;;;105116;1254;60743;-49
2023/03/16 12:22:16;;;;;;;13.90;8.60;;;;;;;;;;105169;1260;59719;-50
2023/03/16 12:24:45;;;;;;;13.10;8.50;;;;;;;;;;104802;1259;60082;-49
2023/03/16 12:27:16;;;;;;;14.30;8.80;;;;;;;;;;105143;1254;59745;-50
2023/03/16 12:30:02;;;;;;;12.90;8.80;;;;;;;;;;106986;1254;60061;-49
2023/03/16 12:32:40;;;;;;;13.10;8.90;;;;;;;;;;107622;1258;59742;-48
2023/03/16 12:35:21;;;;;;;13.50;8.60;;;;;;;;;;106314;1260;58878;-48
2023/03/16 12:37:52;;;;;;;16.60;10.10;;;;;;;;;;105334;1254;60088;-48
2023/03/16 12:40:21;;;;;;;13.40;8.40;;;;;;;;;;105167;1259;59622;-50
2023/03/16 12:42:52;;;;;;;17.10;10.60;;;;;;;;;;104825;1254;60968;-49
2023/03/16 12:45:30;;;;;;;14.90;9.50;;;;;;;;;;104928;1259;59753;-48
2023/03/16 12:48:02;;;;;;;16.70;9.30;;;;;;;;;;105171;1257;59546;-49
2023/03/16 12:50:31;;;;;;;12.00;8.10;;;;;;;;;;105470;1255;61405;-51
2023/03/16 12:53:00;;;;;;;13.00;8.90;;;;;;;;;;104926;1254;59702;-49
2023/03/16 12:55:32;;;;;;;11.50;8.00;;;;;;;;;;104917;1260;60481;-48
2023/03/16 12:58:00;;;;;;;15.30;8.90;;;;;;;;;;104898;1260;59612;-49
2023/03/16 13:00:34;;;;;;;18.10;10.00;;;;;;;;;;105100;1260;59653;-47
2023/03/16 13:03:03;;;;;;;16.70;9.50;;;;;;;;;;105035;1259;61481;-48
2023/03/16 13:05:33;;;;;;;15.20;10.20;;;;;;;;;;104954;1259;59698;-48
2023/03/16 13:08:09;;;;;;;13.20;9.00;;;;;;;;;;105102;1260;60443;-50
2023/03/16 13:10:37;;;;;;;20.90;11.00;;;;;;;;;;105066;1259;59733;-48
2023/03/16 13:13:06;;;;;;;16.00;9.40;;;;;;;;;;105254;1258;59794;-49
2023/03/16 13:15:34;;;;;;;16.90;10.20;;;;;;;;;;107314;1258;61325;-45
2023/03/16 13:18:09;;;;;;;14.60;8.90;;;;;;;;;;106146;1257;59621;-48
2023/03/16 13:20:55;;;;;;;16.40;9.50;;;;;;;;;;105565;1260;60926;-48
2023/03/16 13:23:26;;;;;;;19.20;11.30;;;;;;;;;;104866;1259;59599;-47
2023/03/16 13:26:02;;;;;;;12.70;8.80;;;;;;;;;;107108;1259;59740;-48
2023/03/16 13:28:31;;;;;;;17.20;8.60;;;;;;;;;;104936;1259;61664;-47
2023/03/16 13:31:01;;;;;;;15.80;9.30;;;;;;;;;;108926;1260;57422;-49
2023/03/16 13:33:30;;;;;;;16.10;9.00;;;;;;;;;;108998;1260;64180;-50
2023/03/16 13:36:00;;;;;;;13.10;9.00;;;;;;;;;;108802;1259;58709;-50
2023/03/16 13:38:29;;;;;;;12.30;8.10;;;;;;;;;;108913;1254;57388;-50
2023/03/16 13:41:00;;;;;;;13.60;8.30;;;;;;;;;;109031;1259;61344;-50
2023/03/16 13:43:30;;;;;;;15.00;8.40;;;;;;;;;;105499;1259;59479;-49
2023/03/16 13:45:58;;;;;;;13.50;8.10;;;;;;;;;;109211;1254;61035;-50
2023/03/16 13:48:26;;;;;;;12.10;6.60;;;;;;;;;;109150;1254;57418;-50
2023/03/16 13:50:57;;;;;;;13.20;7.50;;;;;;;;;;109159;1254;57527;-49
2023/03/16 13:53:29;;;;;;;11.80;5.20;;;;;;;;;;109221;1254;61472;-49
2023/03/16 13:56:01;;;;;;;10.40;6.40;;;;;;;;;;109064;1254;61804;-50
2023/03/16 13:58:33;;;;;;;14.30;5.60;;;;;;;;;;109244;1254;61407;-50
2023/03/16 14:01:24;;;;;;;10.30;5.60;;;;;;;;;;109157;1255;58220;-50
2023/03/16 14:04:10;;;;;;;9.50;5.20;;;;;;;;;;109137;1254;58050;-50
2023/03/16 14:06:40;;;;;;;14.00;6.70;;;;;;;;;;108962;1259;60435;-50
2023/03/16 14:09:14;;;;;;;8.90;4.40;;;;;;;;;;109053;1254;57952;-50
2023/03/16 14:11:43;;;;;;;8.40;3.90;;;;;;;;;;106455;1254;61127;-48
2023/03/16 14:14:20;;;;;;;4.90;2.10;;;;;;;;;;104766;1255;60114;-48
2023/03/16 14:16:48;;;;;;;4.20;2.00;;;;;;;;;;107409;1254;59599;-48
2023/03/16 14:19:19;;;;;;;3.20;2.10;;;;;;;;;;104800;1254;61201;-48
2023/03/16 14:21:48;;;;;;;4.00;2.00;;;;;;;;;;104804;1254;60815;-48
2023/03/16 14:24:23;;;;;;;6.30;2.90;;;;;;;;;;108825;1254;61043;-50
2023/03/16 14:26:51;;;;;;;4.70;2.90;;;;;;;;;;108976;1254;57687;-50
2023/03/16 14:29:23;;;;;;;6.20;2.60;;;;;;;;;;106730;1255;59650;-49
2023/03/16 14:31:51;;;;;;;3.70;2.00;;;;;;;;;;104976;1254;61331;-46
2023/03/16 14:34:20;;;;;;;5.30;1.90;;;;;;;;;;108327;1254;59915;-50
2023/03/16 14:36:48;;;;;;;3.90;2.00;;;;;;;;;;106597;1254;60755;-49
2023/03/16 14:39:23;;;;;;;3.80;2.20;;;;;;;;;;106427;1258;59608;-47
2023/03/16 14:41:51;;;;;;;3.30;1.70;;;;;;;;;;104941;1255;59680;-48
2023/03/16 14:44:23;;;;;;;3.60;1.70;;;;;;;;;;105023;1254;61218;-49
2023/03/16 14:46:51;;;;;;;4.70;2.00;;;;;;;;;;104812;1254;59987;-49
2023/03/16 14:49:32;;;;;;;3.90;2.00;;;;;;;;;;105602;1258;60794;-46